Terminal Aerodrome Forecast
Issued by NWS

Home | Current Version | Previous Version | Text Only | Print | Product List | Glossary On
Versions: 1 2 3 4 5 6 7 8 9 10 11 12 13 14 15
000
FTUS43 KICT 032340
TAFHUT
TAF
KHUT 032340Z 0400/0424 19017G25KT P6SM BKN300
     FM040100 18013KT P6SM OVC300
     FM040800 18003KT P6SM OVC150
     FM041300 17013KT P6SM SCT150 OVC300=

USA.gov is the U.S. government's official web portal to all federal, state and local government web resources and services.